Time;durP1;ratioP1;P1;durP2;ratioP2;P2;SDS_P1;SDS_P2;PMS_P1;PMS_P2;Temp;Humidity;BMP_temperature;BMP_pressure;BME280_temperature;BME280_humidity;BME280_pressure;Samples;Min_cycle;Max_cycle;Signal;HPM_P1;HPM_P2
2023/06/07 00:01:26;;;;;;;2.70;2.50;;;22.30;48.40;;;;;;5033239;28;20242;-78
2023/06/07 00:03:52;;;;;;;3.10;2.55;;;22.30;48.40;;;;;;5033420;28;20202;-78
2023/06/07 00:06:21;;;;;;;2.30;2.17;;;22.20;48.40;;;;;;5033450;28;20258;-78
2023/06/07 00:08:49;;;;;;;2.40;2.20;;;22.30;48.50;;;;;;5033735;28;20612;-78
2023/06/07 00:11:18;;;;;;;2.95;2.33;;;22.30;48.50;;;;;;5033292;28;20208;-79
2023/06/07 00:13:45;;;;;;;2.65;2.45;;;22.20;48.50;;;;;;5017087;28;20627;-79
2023/06/07 00:16:12;;;;;;;2.60;2.40;;;22.20;48.50;;;;;;5033169;28;20295;-79
2023/06/07 00:18:40;;;;;;;2.40;2.20;;;22.20;48.50;;;;;;5033121;28;20270;-79
2023/06/07 00:21:07;;;;;;;2.47;2.28;;;22.20;48.60;;;;;;5016539;28;20281;-79
2023/06/07 00:23:35;;;;;;;2.60;2.40;;;22.20;48.60;;;;;;5016899;28;20207;-79
2023/06/07 00:26:04;;;;;;;2.60;2.40;;;22.20;48.60;;;;;;5033005;28;20210;-79
2023/06/07 00:28:31;;;;;;;2.50;2.30;;;22.20;48.60;;;;;;5033008;28;20238;-79
2023/06/07 00:30:58;;;;;;;2.70;2.50;;;22.10;48.60;;;;;;5016586;28;20212;-79
2023/06/07 00:33:25;;;;;;;2.80;2.60;;;22.20;48.70;;;;;;5032890;28;20195;-79
2023/06/07 00:35:55;;;;;;;2.50;2.30;;;22.10;48.60;;;;;;5033152;28;20204;-79
2023/06/07 00:38:23;;;;;;;2.70;2.45;;;22.10;48.70;;;;;;5032882;28;20724;-79
2023/06/07 00:40:51;;;;;;;2.70;2.47;;;22.10;48.70;;;;;;5032679;28;20319;-79
2023/06/07 00:43:20;;;;;;;2.47;2.28;;;22.10;48.70;;;;;;5016762;28;20282;-79
2023/06/07 00:45:47;;;;;;;2.60;2.40;;;22.10;48.70;;;;;;5033064;28;20196;-77
2023/06/07 00:48:14;;;;;;;2.50;2.30;;;22.10;48.70;;;;;;5033604;28;20188;-77
2023/06/07 00:50:42;;;;;;;2.78;2.58;;;22.10;48.80;;;;;;5016730;28;20216;-77
2023/06/07 00:53:08;;;;;;;2.30;2.17;;;22.00;48.70;;;;;;5033113;28;20297;-77
2023/06/07 00:55:36;;;;;;;2.60;2.40;;;22.10;48.90;;;;;;5033590;28;20291;-77
2023/06/07 00:58:05;;;;;;;2.35;2.15;;;22.00;48.90;;;;;;5033724;28;20271;-77
2023/06/07 01:00:34;;;;;;;2.72;2.53;;;22.00;48.90;;;;;;5016558;28;20277;-77
2023/06/07 01:03:02;;;;;;;2.50;2.30;;;22.00;48.90;;;;;;5032705;28;20374;-77
2023/06/07 01:05:30;;;;;;;2.65;2.45;;;22.00;48.90;;;;;;5032646;28;20199;-77
2023/06/07 01:07:57;;;;;;;2.40;2.20;;;22.00;48.90;;;;;;5033377;28;20254;-77
2023/06/07 01:10:24;;;;;;;2.40;2.20;;;22.00;49.00;;;;;;5032421;28;20192;-77
2023/06/07 01:12:53;;;;;;;2.35;2.20;;;22.00;49.00;;;;;;5032538;28;20200;-77
2023/06/07 01:15:21;;;;;;;2.40;2.20;;;21.90;48.90;;;;;;5032700;28;20195;-77
2023/06/07 01:17:49;;;;;;;2.83;2.63;;;21.90;49.00;;;;;;5032467;28;20636;-77
2023/06/07 01:20:20;;;;;;;2.72;2.53;;;22.00;49.00;;;;;;5032410;28;20239;-77
2023/06/07 01:22:48;;;;;;;2.88;2.40;;;21.90;49.00;;;;;;5032392;28;20204;-77
2023/06/07 01:25:16;;;;;;;2.42;2.22;;;21.90;49.10;;;;;;5016156;28;20202;-77
2023/06/07 01:27:45;;;;;;;2.78;2.58;;;21.90;49.10;;;;;;5032467;28;20203;-77
2023/06/07 01:30:14;;;;;;;2.38;2.17;;;21.90;49.10;;;;;;5032276;28;20654;-77
2023/06/07 01:32:41;;;;;;;2.42;2.22;;;21.90;49.10;;;;;;5016043;28;20196;-77
2023/06/07 01:35:09;;;;;;;2.60;2.40;;;21.90;49.10;;;;;;5033004;28;20266;-77
2023/06/07 01:37:36;;;;;;;2.47;2.28;;;21.80;49.10;;;;;;5019351;28;20240;-77
2023/06/07 01:40:05;;;;;;;2.47;2.28;;;21.80;49.10;;;;;;5030278;28;20220;-77
2023/06/07 01:42:33;;;;;;;2.20;2.08;;;21.80;49.70;;;;;;5054716;28;20239;-77
2023/06/07 01:45:00;;;;;;;2.50;2.30;;;21.90;49.30;;;;;;5058029;28;20161;-77
2023/06/07 01:47:27;;;;;;;2.58;2.38;;;21.80;49.20;;;;;;5033074;28;20211;-78
2023/06/07 01:49:54;;;;;;;3.08;2.30;;;21.80;49.20;;;;;;5032203;28;20219;-78
2023/06/07 01:52:22;;;;;;;2.45;2.25;;;21.80;49.30;;;;;;5032083;28;20286;-78
2023/06/07 01:54:48;;;;;;;2.60;2.40;;;21.80;49.30;;;;;;5032251;28;20200;-78
2023/06/07 01:57:18;;;;;;;2.58;2.38;;;21.80;49.30;;;;;;5032250;28;20250;-78
2023/06/07 01:59:53;;;;;;;2.50;2.30;;;21.80;49.40;;;;;;5015576;28;20674;-78
2023/06/07 02:02:24;;;;;;;2.55;2.35;;;21.70;49.30;;;;;;5031913;28;20239;-78
2023/06/07 02:04:54;;;;;;;2.47;2.28;;;21.70;49.30;;;;;;5031917;28;20283;-78
2023/06/07 02:07:23;;;;;;;2.50;2.30;;;21.70;49.40;;;;;;5033508;28;20184;-78
2023/06/07 02:09:51;;;;;;;2.58;2.38;;;21.70;49.40;;;;;;5032712;28;20196;-78
2023/06/07 02:12:18;;;;;;;2.50;2.30;;;21.70;49.40;;;;;;5031814;28;20646;-78
2023/06/07 02:14:46;;;;;;;2.60;2.40;;;21.80;49.50;;;;;;5031944;28;20196;-78
2023/06/07 02:17:14;;;;;;;2.55;2.35;;;21.70;49.40;;;;;;5035311;28;20203;-78
2023/06/07 02:19:41;;;;;;;2.60;2.40;;;21.70;49.40;;;;;;5035240;28;20219;-78
2023/06/07 02:22:08;;;;;;;2.50;2.30;;;21.70;49.40;;;;;;5036202;28;20224;-78
2023/06/07 02:24:37;;;;;;;2.55;2.35;;;21.70;49.50;;;;;;5036379;28;20200;-78
2023/06/07 02:27:06;;;;;;;2.40;2.20;;;21.70;49.50;;;;;;5035582;28;20204;-79
2023/06/07 02:29:33;;;;;;;2.58;2.35;;;21.70;49.50;;;;;;5035452;28;20228;-78
2023/06/07 02:32:00;;;;;;;2.70;2.50;;;21.60;49.40;;;;;;5035060;28;20212;-78
2023/06/07 02:34:29;;;;;;;2.78;2.58;;;21.60;49.40;;;;;;5035509;28;20192;-78
2023/06/07 02:36:58;;;;;;;2.72;2.53;;;21.60;49.50;;;;;;5035228;28;20202;-78
2023/06/07 02:39:25;;;;;;;2.72;2.53;;;21.60;49.50;;;;;;5035085;28;20228;-78
2023/06/07 02:41:52;;;;;;;2.60;2.40;;;21.60;49.50;;;;;;5034939;28;20224;-78
2023/06/07 02:44:19;;;;;;;2.75;2.50;;;21.60;49.50;;;;;;5034963;28;20199;-78
2023/06/07 02:46:47;;;;;;;2.78;2.58;;;21.60;49.50;;;;;;5034857;28;20245;-78
2023/06/07 02:49:14;;;;;;;2.60;2.40;;;21.60;49.60;;;;;;5036038;28;20283;-78
2023/06/07 02:51:43;;;;;;;2.83;2.53;;;21.60;49.60;;;;;;5034900;28;20220;-78
2023/06/07 02:54:11;;;;;;;2.50;2.30;;;21.50;49.50;;;;;;5018571;28;20250;-78
2023/06/07 02:56:39;;;;;;;2.65;2.45;;;21.60;49.60;;;;;;5034785;28;20211;-78
2023/06/07 02:59:07;;;;;;;2.67;2.47;;;21.60;49.70;;;;;;5034722;28;20546;-78
2023/06/07 03:01:39;;;;;;;2.70;2.50;;;21.60;49.70;;;;;;5034663;28;20278;-78
2023/06/07 03:04:07;;;;;;;2.78;2.58;;;21.50;49.60;;;;;;5002947;28;20246;-78
2023/06/07 03:06:34;;;;;;;2.70;2.50;;;21.50;49.60;;;;;;5034758;28;20215;-78
2023/06/07 03:09:15;;;;;;;3.00;2.80;;;21.50;49.60;;;;;;5050467;22;20234;-82
2023/06/07 03:11:43;;;;;;;3.00;2.75;;;21.50;49.60;;;;;;5035613;28;20220;-82
2023/06/07 03:14:10;;;;;;;2.85;2.65;;;21.50;49.50;;;;;;5036034;28;20261;-82
2023/06/07 03:16:44;;;;;;;2.90;2.60;;;21.50;49.50;;;;;;5037039;28;20199;-82
2023/06/07 03:19:13;;;;;;;2.97;2.70;;;21.50;49.50;;;;;;5036108;28;20192;-82
2023/06/07 03:21:44;;;;;;;3.28;2.90;;;21.60;49.50;;;;;;5036049;28;20232;-81
2023/06/07 03:24:14;;;;;;;2.95;2.70;;;21.50;49.30;;;;;;5036731;28;20579;-81
2023/06/07 03:26:42;;;;;;;3.00;2.80;;;21.60;49.30;;;;;;5035758;28;20270;-81
2023/06/07 03:29:10;;;;;;;2.60;2.40;;;21.60;49.30;;;;;;5019435;28;20554;-81
2023/06/07 03:31:39;;;;;;;2.60;2.40;;;21.70;49.20;;;;;;5035597;28;20215;-81
2023/06/07 03:34:11;;;;;;;3.00;2.53;;;21.70;49.10;;;;;;5035143;28;20200;-81
2023/06/07 03:36:40;;;;;;;2.72;2.53;;;21.70;48.90;;;;;;5018876;28;20294;-81
2023/06/07 03:39:07;;;;;;;3.10;2.80;;;21.80;49.00;;;;;;5019350;28;20223;-81
2023/06/07 03:41:36;;;;;;;3.20;2.90;;;21.80;48.90;;;;;;5034974;28;20701;-81
2023/06/07 03:44:06;;;;;;;2.90;2.60;;;21.90;48.90;;;;;;5036066;28;20544;-81
2023/06/07 03:46:34;;;;;;;2.60;2.40;;;21.90;48.80;;;;;;5035027;28;20291;-81
2023/06/07 03:49:02;;;;;;;3.10;2.80;;;21.90;48.80;;;;;;5035254;28;20203;-81
2023/06/07 03:51:32;;;;;;;3.03;2.83;;;21.90;48.70;;;;;;5035278;28;20627;-81
2023/06/07 03:54:01;;;;;;;3.28;2.78;;;21.90;48.70;;;;;;5035454;28;20196;-81
2023/06/07 03:56:29;;;;;;;3.20;2.90;;;21.90;48.60;;;;;;5019276;28;20279;-81
2023/06/07 03:59:01;;;;;;;4.25;2.83;;;21.90;48.60;;;;;;5034674;28;20196;-81
2023/06/07 04:01:30;;;;;;;2.67;2.42;;;21.90;48.60;;;;;;5035201;28;20574;-81
2023/06/07 04:03:58;;;;;;;3.00;2.80;;;21.90;48.50;;;;;;5034761;28;20223;-81
2023/06/07 04:06:25;;;;;;;2.88;2.67;;;21.90;48.40;;;;;;5018302;28;20196;-81
2023/06/07 04:08:53;;;;;;;3.50;2.60;;;22.00;48.50;;;;;;5034273;28;20211;-81
2023/06/07 04:11:20;;;;;;;2.95;2.75;;;22.00;48.50;;;;;;5048413;28;20231;-81
2023/06/07 04:13:48;;;;;;;3.17;2.88;;;22.00;48.40;;;;;;5053255;28;20204;-81
2023/06/07 04:16:16;;;;;;;3.00;2.80;;;22.00;48.40;;;;;;5052961;28;20331;-81
2023/06/07 04:18:47;;;;;;;2.80;2.60;;;22.00;48.40;;;;;;5049103;28;20188;-81
2023/06/07 04:21:14;;;;;;;2.90;2.70;;;22.00;48.30;;;;;;5043711;28;20212;-81
2023/06/07 04:23:43;;;;;;;3.00;2.80;;;22.00;48.30;;;;;;5039325;28;20664;-81
2023/06/07 04:26:18;;;;;;;3.33;3.08;;;22.10;48.30;;;;;;5035824;28;20195;-82
2023/06/07 04:28:46;;;;;;;3.17;2.88;;;22.00;48.20;;;;;;5035503;28;20508;-82
2023/06/07 04:31:17;;;;;;;3.67;2.75;;;22.00;48.20;;;;;;5035162;28;20224;-82
2023/06/07 04:33:47;;;;;;;3.30;3.00;;;22.00;48.20;;;;;;5034880;28;20250;-82
2023/06/07 04:36:18;;;;;;;3.22;2.92;;;22.00;48.10;;;;;;5034584;28;20195;-82
2023/06/07 04:38:46;;;;;;;3.03;2.72;;;22.10;48.20;;;;;;5033633;28;20188;-82
2023/06/07 04:41:14;;;;;;;3.25;2.95;;;22.10;48.10;;;;;;5033723;28;20270;-82
2023/06/07 04:43:48;;;;;;;2.70;2.50;;;22.10;48.00;;;;;;5033978;28;20195;-80
2023/06/07 04:46:21;;;;;;;3.30;3.00;;;22.20;47.60;;;;;;5033929;28;20188;-80
2023/06/07 04:48:49;;;;;;;3.35;2.97;;;22.40;47.60;;;;;;5034485;28;20204;-81
2023/06/07 04:51:20;;;;;;;3.30;3.00;;;22.60;47.30;;;;;;5036702;28;20690;-82
2023/06/07 04:53:57;;;;;;;2.63;2.42;;;22.70;46.80;;;;;;5028961;28;20194;-82
2023/06/07 04:56:28;;;;;;;3.20;2.90;;;22.90;46.40;;;;;;5037517;28;20203;-82
2023/06/07 04:58:58;;;;;;;2.90;2.70;;;23.10;46.10;;;;;;5039396;28;20242;-82
2023/06/07 05:01:33;;;;;;;2.97;2.70;;;23.20;45.70;;;;;;5033704;28;20224;-82
2023/06/07 05:04:01;;;;;;;3.10;2.80;;;23.40;45.50;;;;;;5035934;28;20264;-82
2023/06/07 05:06:37;;;;;;;2.97;2.78;;;23.50;45.20;;;;;;5035119;28;20219;-82
2023/06/07 05:09:07;;;;;;;3.10;2.80;;;23.60;44.90;;;;;;5033793;28;20736;-82
2023/06/07 05:11:35;;;;;;;3.25;2.95;;;23.80;44.70;;;;;;5033774;28;20628;-82
2023/06/07 05:14:03;;;;;;;2.75;2.50;;;23.90;44.40;;;;;;5033866;28;20303;-82
2023/06/07 05:16:32;;;;;;;2.95;2.75;;;24.00;44.30;;;;;;5033316;28;20196;-82
2023/06/07 05:19:00;;;;;;;2.95;2.75;;;24.10;44.80;;;;;;5033420;28;20282;-82
2023/06/07 05:21:31;;;;;;;2.80;2.60;;;24.20;43.90;;;;;;5033332;28;20224;-82
2023/06/07 05:23:59;;;;;;;3.33;3.03;;;24.30;43.70;;;;;;5016990;28;20203;-82
2023/06/07 05:26:26;;;;;;;3.53;3.20;;;24.30;44.10;;;;;;5033437;28;20196;-82
2023/06/07 05:28:54;;;;;;;2.70;2.50;;;24.50;43.60;;;;;;5033930;28;20196;-82
2023/06/07 05:31:22;;;;;;;3.65;3.30;;;24.50;43.30;;;;;;5032980;28;20793;-82
2023/06/07 05:33:51;;;;;;;2.92;2.63;;;24.60;43.10;;;;;;5034519;28;20200;-82
2023/06/07 05:36:20;;;;;;;2.80;2.60;;;24.70;43.00;;;;;;5035366;28;20192;-82
2023/06/07 05:38:49;;;;;;;3.20;2.90;;;24.70;42.80;;;;;;5034861;28;20200;-82
2023/06/07 05:41:16;;;;;;;3.25;2.95;;;24.80;42.70;;;;;;5034795;28;20226;-82
2023/06/07 05:43:43;;;;;;;3.00;2.70;;;25.00;42.60;;;;;;5034706;28;20216;-82
2023/06/07 05:46:10;;;;;;;3.38;2.80;;;25.00;42.40;;;;;;5034883;28;20207;-80
2023/06/07 05:48:39;;;;;;;3.05;2.85;;;25.00;42.30;;;;;;5018585;28;20222;-82
2023/06/07 05:51:12;;;;;;;3.28;2.97;;;25.10;42.10;;;;;;5036944;28;20216;-81
2023/06/07 05:53:39;;;;;;;3.33;3.03;;;25.10;41.90;;;;;;5036890;28;20200;-81
2023/06/07 05:56:09;;;;;;;3.28;2.97;;;25.20;41.90;;;;;;5037456;28;20196;-82
2023/06/07 05:58:37;;;;;;;3.20;2.90;;;25.30;41.90;;;;;;5021189;28;20250;-82
2023/06/07 06:01:07;;;;;;;3.78;3.00;;;25.40;41.80;;;;;;5037707;28;20224;-81
2023/06/07 06:03:34;;;;;;;2.78;2.58;;;25.40;41.60;;;;;;5037417;28;20192;-83
2023/06/07 06:06:01;;;;;;;4.20;2.90;;;25.50;41.50;;;;;;5036914;28;20192;-83
2023/06/07 06:08:29;;;;;;;3.10;2.80;;;25.50;41.30;;;;;;5036870;28;20200;-82
2023/06/07 06:10:56;;;;;;;3.00;2.80;;;25.60;41.20;;;;;;5037718;28;20220;-82
2023/06/07 06:13:23;;;;;;;3.38;2.67;;;25.70;41.20;;;;;;5037528;28;20230;-83
2023/06/07 06:15:51;;;;;;;2.97;2.78;;;25.80;41.10;;;;;;5038278;28;20228;-82
2023/06/07 06:18:18;;;;;;;2.80;2.60;;;25.80;40.90;;;;;;5020955;28;20227;-82
2023/06/07 06:20:45;;;;;;;3.13;2.83;;;25.90;40.80;;;;;;5037678;28;20769;-82
2023/06/07 06:23:12;;;;;;;2.67;2.47;;;25.90;40.60;;;;;;5037345;28;20641;-82
2023/06/07 06:25:41;;;;;;;3.20;2.90;;;26.00;40.50;;;;;;5037346;28;20544;-82
2023/06/07 06:28:08;;;;;;;2.78;2.58;;;26.10;40.40;;;;;;5037760;28;20616;-82
2023/06/07 06:30:35;;;;;;;3.05;2.80;;;26.20;40.20;;;;;;5037003;28;20254;-82
2023/06/07 06:33:03;;;;;;;2.92;2.70;;;26.20;40.10;;;;;;5037241;28;20222;-82
2023/06/07 06:35:32;;;;;;;2.70;2.50;;;26.30;40.00;;;;;;5037100;28;20588;-82
2023/06/07 06:38:00;;;;;;;2.80;2.60;;;26.30;39.80;;;;;;5036902;28;20262;-82
2023/06/07 06:40:27;;;;;;;2.72;2.53;;;26.40;39.70;;;;;;5037154;28;20223;-82
2023/06/07 06:42:56;;;;;;;2.80;2.60;;;26.40;39.60;;;;;;5037369;28;20304;-83
2023/06/07 06:45:46;;;;;;;2.97;2.65;;;26.50;39.50;;;;;;5037189;28;20242;-81
2023/06/07 06:48:13;;;;;;;3.00;2.80;;;26.60;39.40;;;;;;5035855;28;20654;-82
2023/06/07 06:50:40;;;;;;;2.53;2.33;;;26.60;39.90;;;;;;5036083;28;20219;-82
2023/06/07 06:53:07;;;;;;;2.80;2.58;;;26.70;39.20;;;;;;5036331;28;20188;-82
2023/06/07 06:55:34;;;;;;;2.80;2.60;;;26.70;39.00;;;;;;5036793;28;20662;-81
2023/06/07 06:58:03;;;;;;;3.20;2.70;;;26.80;39.00;;;;;;5036037;28;20199;-82
2023/06/07 07:00:31;;;;;;;2.63;2.42;;;26.80;38.90;;;;;;5036697;28;20249;-82
2023/06/07 07:02:58;;;;;;;2.80;2.60;;;26.90;38.80;;;;;;5037665;28;20216;-81
2023/06/07 07:05:25;;;;;;;4.43;2.72;;;26.90;39.30;;;;;;5037232;28;20619;-81
2023/06/07 07:07:52;;;;;;;2.60;2.40;;;27.00;38.70;;;;;;5021856;28;20195;-81
2023/06/07 07:10:20;;;;;;;3.00;2.70;;;27.00;38.70;;;;;;5036851;28;20199;-81
2023/06/07 07:12:47;;;;;;;2.63;2.42;;;27.10;38.50;;;;;;5039211;28;20261;-81
2023/06/07 07:15:15;;;;;;;2.53;2.33;;;27.10;38.40;;;;;;5036234;28;20202;-81
2023/06/07 07:17:45;;;;;;;2.53;2.33;;;27.10;38.30;;;;;;5036261;28;20265;-82
2023/06/07 07:20:13;;;;;;;2.65;2.45;;;27.20;38.30;;;;;;5036757;28;20188;-81
2023/06/07 07:22:40;;;;;;;2.53;2.33;;;27.20;38.30;;;;;;5036273;28;20220;-81
2023/06/07 07:25:09;;;;;;;2.70;2.50;;;27.20;38.20;;;;;;5036155;28;20219;-81
2023/06/07 07:27:35;;;;;;;2.50;2.30;;;27.30;38.10;;;;;;5036149;28;20567;-81
2023/06/07 07:30:04;;;;;;;3.00;2.70;;;27.30;38.00;;;;;;5036372;28;20187;-81
2023/06/07 07:32:33;;;;;;;3.05;2.75;;;27.30;37.90;;;;;;5035214;28;20273;-82
2023/06/07 07:35:00;;;;;;;2.70;2.50;;;27.40;37.90;;;;;;5034925;28;20199;-82
2023/06/07 07:37:28;;;;;;;3.53;2.58;;;27.40;37.80;;;;;;5034768;28;20196;-82
2023/06/07 07:39:55;;;;;;;2.80;2.60;;;27.50;37.80;;;;;;5034644;28;20203;-81
2023/06/07 07:42:22;;;;;;;3.10;2.72;;;27.50;37.80;;;;;;5034848;28;20234;-81
2023/06/07 07:44:49;;;;;;;3.42;3.13;;;27.50;37.90;;;;;;5035849;28;20207;-81
2023/06/07 07:47:16;;;;;;;2.58;2.38;;;27.50;38.70;;;;;;5035338;28;20229;-80
2023/06/07 07:49:47;;;;;;;2.72;2.53;;;27.50;38.00;;;;;;5035716;28;20227;-81
2023/06/07 07:52:15;;;;;;;3.25;2.45;;;27.60;38.00;;;;;;5034816;28;20211;-81
2023/06/07 07:54:43;;;;;;;3.72;2.85;;;27.60;37.90;;;;;;5035975;28;20293;-81
2023/06/07 07:57:10;;;;;;;3.33;3.03;;;27.60;37.80;;;;;;5036916;28;20203;-82
2023/06/07 07:59:37;;;;;;;2.92;2.72;;;27.70;37.80;;;;;;5036339;28;20199;-81
2023/06/07 08:02:05;;;;;;;3.00;2.80;;;27.70;38.30;;;;;;5037150;28;20290;-82
2023/06/07 08:04:32;;;;;;;3.10;2.80;;;27.60;39.20;;;;;;5036068;28;20207;-81
2023/06/07 08:07:01;;;;;;;3.17;2.60;;;27.60;39.70;;;;;;5036713;28;20295;-81
2023/06/07 08:09:28;;;;;;;3.15;2.85;;;27.60;40.00;;;;;;5040489;28;20202;-80
2023/06/07 08:11:55;;;;;;;3.65;3.10;;;27.60;40.10;;;;;;5040632;28;20215;-80
2023/06/07 08:14:22;;;;;;;3.42;3.13;;;27.50;40.20;;;;;;5041055;28;20307;-81
2023/06/07 08:16:49;;;;;;;4.97;3.05;;;27.50;40.30;;;;;;5034316;28;20195;-81
2023/06/07 08:19:16;;;;;;;2.92;2.70;;;27.50;40.60;;;;;;5018007;28;20233;-81
2023/06/07 08:21:47;;;;;;;3.13;2.83;;;27.50;40.70;;;;;;5018703;28;20246;-80
2023/06/07 08:24:17;;;;;;;3.33;3.03;;;27.50;41.40;;;;;;5034494;28;20195;-81
2023/06/07 08:26:47;;;;;;;3.67;2.80;;;27.50;40.80;;;;;;5034591;28;20207;-82
2023/06/07 08:29:13;;;;;;;3.90;2.83;;;27.50;40.90;;;;;;5033681;28;20199;-80
2023/06/07 08:31:43;;;;;;;2.97;2.50;;;27.50;40.50;;;;;;5034518;28;20222;-81
2023/06/07 08:34:10;;;;;;;3.20;2.45;;;27.60;40.80;;;;;;5033889;28;20661;-81
2023/06/07 08:36:38;;;;;;;3.58;2.20;;;27.60;39.90;;;;;;5034368;28;20207;-81
2023/06/07 08:39:05;;;;;;;4.35;2.53;;;27.60;40.30;;;;;;5033884;28;20210;-82
2023/06/07 08:41:34;;;;;;;2.78;2.35;;;27.60;40.40;;;;;;5033903;28;20759;-80
2023/06/07 08:44:01;;;;;;;2.83;2.20;;;27.70;40.20;;;;;;5033850;28;20211;-81
2023/06/07 08:46:30;;;;;;;3.33;2.50;;;27.60;40.60;;;;;;5034194;28;20199;-82
2023/06/07 08:48:59;;;;;;;3.15;2.47;;;27.50;41.00;;;;;;5034703;28;20253;-82
2023/06/07 08:51:26;;;;;;;2.85;2.45;;;27.40;41.00;;;;;;5035145;28;20219;-82
2023/06/07 08:53:55;;;;;;;2.90;2.10;;;27.20;41.20;;;;;;5034544;28;20253;-82
2023/06/07 08:56:25;;;;;;;3.97;2.38;;;27.10;41.50;;;;;;5035534;28;20207;-81
2023/06/07 08:58:53;;;;;;;3.38;2.25;;;26.90;41.80;;;;;;5036282;28;20202;-81
2023/06/07 09:01:21;;;;;;;2.70;2.10;;;26.80;42.10;;;;;;5020315;28;20215;-81
2023/06/07 09:03:51;;;;;;;2.13;2.00;;;26.90;41.80;;;;;;5036691;28;20212;-81
2023/06/07 09:06:19;;;;;;;3.00;2.10;;;26.90;41.20;;;;;;5070976;22;20693;-79
2023/06/07 09:08:47;;;;;;;3.08;2.63;;;27.00;41.10;;;;;;5078242;22;20328;-67
2023/06/07 09:11:14;;;;;;;3.33;2.40;;;27.10;41.00;;;;;;5053640;28;20179;-64
2023/06/07 09:13:41;;;;;;;2.53;2.33;;;27.20;41.00;;;;;;5053025;28;20191;-66
2023/06/07 09:16:11;;;;;;;7.10;2.40;;;27.20;40.80;;;;;;5051752;28;20250;-66
2023/06/07 09:18:42;;;;;;;2.50;2.28;;;27.30;40.70;;;;;;5051843;28;20788;-66
2023/06/07 09:21:19;;;;;;;2.33;2.13;;;27.40;40.50;;;;;;5052928;28;20205;-67
2023/06/07 09:23:46;;;;;;;2.60;2.40;;;27.50;40.50;;;;;;5052894;28;20191;-66
2023/06/07 09:26:13;;;;;;;2.70;2.50;;;27.40;40.40;;;;;;5057036;28;20190;-66
2023/06/07 09:28:40;;;;;;;3.28;2.17;;;27.50;39.90;;;;;;5056903;28;20202;-66
2023/06/07 09:31:08;;;;;;;2.38;2.10;;;27.50;39.60;;;;;;5055365;28;20194;-66
2023/06/07 09:33:37;;;;;;;2.20;2.10;;;27.50;39.10;;;;;;5056770;28;20191;-66
2023/06/07 09:36:05;;;;;;;2.15;1.95;;;27.40;39.40;;;;;;5057137;28;20220;-66
2023/06/07 09:38:33;;;;;;;2.65;2.03;;;27.30;39.70;;;;;;5055631;28;20219;-64
2023/06/07 09:41:01;;;;;;;3.08;2.28;;;27.20;40.00;;;;;;5055505;28;20293;-68
2023/06/07 09:43:28;;;;;;;2.40;2.20;;;27.10;40.30;;;;;;5055239;28;20692;-68
2023/06/07 09:45:55;;;;;;;6.15;2.53;;;27.10;40.30;;;;;;5057167;28;20187;-66
2023/06/07 09:48:22;;;;;;;3.10;2.33;;;27.10;40.40;;;;;;5056555;28;20240;-66
2023/06/07 09:50:57;;;;;;;4.28;2.60;;;27.10;40.30;;;;;;5056457;28;20787;-65
2023/06/07 09:53:24;;;;;;;6.53;2.20;;;27.10;40.00;;;;;;5055230;28;20191;-65
2023/06/07 09:55:51;;;;;;;3.05;2.38;;;27.20;40.90;;;;;;5056492;28;20186;-66
2023/06/07 09:58:19;;;;;;;3.40;2.30;;;27.20;40.30;;;;;;5056517;28;20190;-65
2023/06/07 10:00:48;;;;;;;2.97;2.25;;;27.20;40.50;;;;;;5055038;28;20665;-65
2023/06/07 10:03:15;;;;;;;2.38;2.20;;;27.30;40.40;;;;;;5054958;28;20305;-65
2023/06/07 10:05:43;;;;;;;4.80;2.10;;;27.30;40.20;;;;;;5056229;28;20240;-65
2023/06/07 10:08:12;;;;;;;2.30;2.10;;;27.30;40.00;;;;;;5056089;28;20563;-65
2023/06/07 10:10:39;;;;;;;2.45;2.08;;;27.40;39.90;;;;;;5054805;28;20201;-65
2023/06/07 10:13:07;;;;;;;2.78;2.13;;;27.40;39.80;;;;;;5056086;28;20225;-66
2023/06/07 10:15:35;;;;;;;2.67;2.33;;;27.40;39.80;;;;;;5054853;28;20194;-65
2023/06/07 10:18:06;;;;;;;2.33;2.13;;;27.40;39.90;;;;;;5056114;28;20191;-66
2023/06/07 10:20:35;;;;;;;2.42;2.08;;;27.40;39.80;;;;;;5056215;28;20262;-65
2023/06/07 10:23:04;;;;;;;3.42;2.08;;;27.40;39.90;;;;;;5056059;28;20702;-65
2023/06/07 10:25:35;;;;;;;2.30;2.10;;;27.30;39.90;;;;;;5054623;28;20573;-65
2023/06/07 10:28:12;;;;;;;2.83;1.98;;;27.30;40.00;;;;;;5056084;28;20198;-65
2023/06/07 10:30:43;;;;;;;2.40;1.90;;;27.20;40.10;;;;;;5055792;28;20261;-66
2023/06/07 10:33:10;;;;;;;3.35;2.15;;;27.20;40.20;;;;;;5055110;28;20547;-65
2023/06/07 10:35:38;;;;;;;2.65;2.13;;;27.10;40.20;;;;;;5055269;28;20198;-65
2023/06/07 10:38:05;;;;;;;2.65;2.15;;;27.10;40.30;;;;;;5054177;28;20208;-65
2023/06/07 10:40:33;;;;;;;3.22;2.15;;;27.00;40.30;;;;;;5055955;28;20253;-67
2023/06/07 10:43:01;;;;;;;2.30;2.13;;;27.00;40.70;;;;;;5055535;28;20260;-66
2023/06/07 10:45:28;;;;;;;2.10;1.88;;;27.00;40.70;;;;;;5054237;28;20249;-67
2023/06/07 10:47:55;;;;;;;2.20;2.00;;;27.00;40.60;;;;;;5055596;28;20622;-66
2023/06/07 10:50:48;;;;;;;2.20;2.10;;;27.00;40.70;;;;;;5054124;28;20219;-65
2023/06/07 10:53:15;;;;;;;2.67;1.80;;;26.90;40.70;;;;;;5055482;28;20533;-66
2023/06/07 10:55:44;;;;;;;2.80;1.90;;;26.90;40.80;;;;;;5055726;28;20683;-67
2023/06/07 10:58:27;;;;;;;2.15;1.80;;;26.80;41.10;;;;;;5055160;28;20190;-66
2023/06/07 11:00:56;;;;;;;2.20;1.90;;;26.80;41.10;;;;;;5054086;28;20205;-66
2023/06/07 11:03:41;;;;;;;1.95;1.85;;;26.70;41.30;;;;;;5055186;28;20238;-66
2023/06/07 11:06:10;;;;;;;2.22;2.03;;;26.60;41.30;;;;;;5055282;28;20237;-66
2023/06/07 11:08:40;;;;;;;1.98;1.88;;;26.60;41.50;;;;;;5053677;28;20597;-66
2023/06/07 11:11:53;;;;;;;2.00;1.90;;;26.60;41.50;;;;;;5053916;28;20197;-66
2023/06/07 11:14:21;;;;;;;2.53;2.05;;;26.60;41.40;;;;;;5053834;28;20202;-67
2023/06/07 11:16:49;;;;;;;2.03;1.92;;;26.60;41.20;;;;;;5053726;28;20194;-66
2023/06/07 11:19:18;;;;;;;2.10;1.90;;;26.60;41.30;;;;;;5053694;28;20210;-66
2023/06/07 11:22:04;;;;;;;1.80;1.70;;;26.60;41.10;;;;;;5053593;28;20194;-66
2023/06/07 11:24:33;;;;;;;2.00;1.90;;;26.70;41.10;;;;;;5053475;28;20680;-66
2023/06/07 11:27:00;;;;;;;2.25;2.05;;;26.70;41.10;;;;;;5053560;28;20199;-67
2023/06/07 11:29:30;;;;;;;2.17;2.00;;;26.70;41.10;;;;;;5076191;22;20218;-67
2023/06/07 11:32:02;;;;;;;2.17;1.92;;;26.70;41.00;;;;;;5033565;28;20241;-66
2023/06/07 11:34:30;;;;;;;2.20;2.00;;;26.70;41.00;;;;;;5034754;28;20183;-67
2023/06/07 11:37:11;;;;;;;1.92;1.83;;;26.70;40.90;;;;;;5034724;28;20197;-66
2023/06/07 11:39:39;;;;;;;2.55;2.00;;;26.70;40.80;;;;;;5033600;28;20282;-66
2023/06/07 11:42:07;;;;;;;2.05;1.90;;;26.70;40.80;;;;;;5033509;28;20341;-66
2023/06/07 11:44:35;;;;;;;1.88;1.77;;;26.80;40.80;;;;;;5078872;22;20285;-78
2023/06/07 11:47:06;;;;;;;1.60;1.50;;;26.80;40.80;;;;;;5034061;28;20286;-77
2023/06/07 11:49:35;;;;;;;2.00;1.83;;;26.80;40.80;;;;;;5034694;28;20291;-78
2023/06/07 11:52:02;;;;;;;1.83;1.73;;;26.80;40.80;;;;;;5034344;28;20306;-79
2023/06/07 11:54:31;;;;;;;2.00;1.83;;;26.80;40.70;;;;;;5034080;28;20199;-79
2023/06/07 11:56:58;;;;;;;1.90;1.80;;;26.80;40.80;;;;;;5033980;28;20218;-79
2023/06/07 11:59:26;;;;;;;2.60;1.90;;;26.80;40.80;;;;;;5033777;28;20261;-79
2023/06/07 12:01:55;;;;;;;1.98;1.88;;;26.80;40.80;;;;;;5035279;28;20251;-79
2023/06/07 12:04:23;;;;;;;2.17;1.98;;;26.70;40.40;;;;;;5037172;28;20261;-79
2023/06/07 12:06:50;;;;;;;1.98;1.88;;;26.70;40.30;;;;;;5039148;28;20195;-79
2023/06/07 12:09:19;;;;;;;2.10;1.90;;;26.70;40.80;;;;;;5038208;28;20199;-79
2023/06/07 12:11:47;;;;;;;2.30;2.10;;;26.60;40.60;;;;;;5056478;28;20203;-79
2023/06/07 12:14:31;;;;;;;1.80;1.70;;;26.70;40.70;;;;;;5059209;28;20203;-79
2023/06/07 12:17:01;;;;;;;2.97;1.70;;;26.60;40.60;;;;;;5059383;28;20163;-77
2023/06/07 12:19:28;;;;;;;1.77;1.67;;;26.70;40.70;;;;;;5058429;28;20180;-77
2023/06/07 12:22:03;;;;;;;1.90;1.80;;;26.60;40.70;;;;;;5040502;28;20219;-77
2023/06/07 12:24:31;;;;;;;1.90;1.70;;;26.60;40.80;;;;;;5040444;28;20305;-77
2023/06/07 12:26:58;;;;;;;2.03;1.83;;;26.60;40.90;;;;;;5031168;28;20199;-77
2023/06/07 12:29:29;;;;;;;1.85;1.75;;;26.60;40.90;;;;;;5054467;28;20192;-77
2023/06/07 12:31:56;;;;;;;2.00;1.75;;;26.60;41.00;;;;;;5035201;28;20273;-77
2023/06/07 12:34:27;;;;;;;1.88;1.77;;;26.50;41.00;;;;;;5033807;28;20192;-77
2023/06/07 12:36:55;;;;;;;1.90;1.80;;;26.50;41.00;;;;;;5016636;28;20214;-77
2023/06/07 12:39:27;;;;;;;1.80;1.70;;;26.50;41.10;;;;;;5032773;28;20199;-78
2023/06/07 12:41:54;;;;;;;1.60;1.50;;;26.50;41.20;;;;;;5032898;28;20246;-78
2023/06/07 12:44:21;;;;;;;1.80;1.70;;;26.50;41.20;;;;;;5033082;28;20220;-78
2023/06/07 12:46:48;;;;;;;1.92;1.83;;;26.50;41.30;;;;;;5032789;28;20187;-78
2023/06/07 12:49:16;;;;;;;1.70;1.60;;;26.40;41.30;;;;;;5034074;28;20198;-77
2023/06/07 12:51:45;;;;;;;1.73;1.63;;;26.40;41.30;;;;;;5032720;28;20257;-77
2023/06/07 12:54:13;;;;;;;1.73;1.60;;;26.40;41.30;;;;;;5032753;28;20195;-77
2023/06/07 12:56:41;;;;;;;1.60;1.50;;;26.40;41.40;;;;;;5032596;28;20196;-77